sensor_id;sensor_type;location;lat;lon;timestamp;temperature;humidity
9448;DHT22;4762;48.128;11.376;2023-04-25T00:00:14;6.70;99.90
9448;DHT22;4762;48.128;11.376;2023-04-25T00:02:16;6.70;99.90
9448;DHT22;4762;48.128;11.376;2023-04-25T00:04:19;6.70;99.90
9448;DHT22;4762;48.128;11.376;2023-04-25T00:06:21;6.70;99.90
9448;DHT22;4762;48.128;11.376;2023-04-25T00:08:24;6.80;99.90
9448;DHT22;4762;48.128;11.376;2023-04-25T00:10:26;6.90;99.90
9448;DHT22;4762;48.128;11.376;2023-04-25T00:12:28;6.90;99.90
9448;DHT22;4762;48.128;11.376;2023-04-25T00:14:30;6.90;99.90
9448;DHT22;4762;48.128;11.376;2023-04-25T00:16:33;6.90;99.90
9448;DHT22;4762;48.128;11.376;2023-04-25T00:18:35;6.90;99.90
9448;DHT22;4762;48.128;11.376;2023-04-25T00:20:37;6.90;99.90
9448;DHT22;4762;48.128;11.376;2023-04-25T00:22:40;6.90;99.90
9448;DHT22;4762;48.128;11.376;2023-04-25T00:24:42;7.00;99.90
9448;DHT22;4762;48.128;11.376;2023-04-25T00:26:45;7.00;99.90
9448;DHT22;4762;48.128;11.376;2023-04-25T00:28:47;7.00;99.90
9448;DHT22;4762;48.128;11.376;2023-04-25T00:30:49;6.90;99.90
9448;DHT22;4762;48.128;11.376;2023-04-25T00:32:52;6.80;99.90
9448;DHT22;4762;48.128;11.376;2023-04-25T00:34:54;6.70;99.90
9448;DHT22;4762;48.128;11.376;2023-04-25T00:36:57;6.60;99.90
9448;DHT22;4762;48.128;11.376;2023-04-25T00:38:59;6.50;99.90
9448;DHT22;4762;48.128;11.376;2023-04-25T00:41:01;6.40;99.90
9448;DHT22;4762;48.128;11.376;2023-04-25T00:43:03;6.40;99.90
9448;DHT22;4762;48.128;11.376;2023-04-25T00:45:06;6.40;99.90
9448;DHT22;4762;48.128;11.376;2023-04-25T00:47:09;6.40;99.90
9448;DHT22;4762;48.128;11.376;2023-04-25T00:49:11;6.30;99.90
9448;DHT22;4762;48.128;11.376;2023-04-25T00:51:15;6.30;99.90
9448;DHT22;4762;48.128;11.376;2023-04-25T00:53:16;6.20;99.90
9448;DHT22;4762;48.128;11.376;2023-04-25T00:55:19;6.10;99.90
9448;DHT22;4762;48.128;11.376;2023-04-25T00:57:21;6.00;99.90
9448;DHT22;4762;48.128;11.376;2023-04-25T00:59:23;5.90;99.90
9448;DHT22;4762;48.128;11.376;2023-04-25T01:01:26;5.90;99.90
9448;DHT22;4762;48.128;11.376;2023-04-25T01:03:28;5.90;99.90
9448;DHT22;4762;48.128;11.376;2023-04-25T01:05:31;5.90;99.90
9448;DHT22;4762;48.128;11.376;2023-04-25T01:07:33;5.90;99.90
9448;DHT22;4762;48.128;11.376;2023-04-25T01:09:35;5.90;99.90
9448;DHT22;4762;48.128;11.376;2023-04-25T01:11:37;5.90;99.90
9448;DHT22;4762;48.128;11.376;2023-04-25T01:13:40;5.90;99.90
9448;DHT22;4762;48.128;11.376;2023-04-25T01:15:42;5.90;99.90
9448;DHT22;4762;48.128;11.376;2023-04-25T01:17:44;5.90;99.90
9448;DHT22;4762;48.128;11.376;2023-04-25T01:19:46;5.90;99.90
9448;DHT22;4762;48.128;11.376;2023-04-25T01:21:48;5.80;99.90
9448;DHT22;4762;48.128;11.376;2023-04-25T01:23:50;5.80;99.90
9448;DHT22;4762;48.128;11.376;2023-04-25T01:25:53;5.80;99.90
9448;DHT22;4762;48.128;11.376;2023-04-25T01:27:55;5.80;99.90
9448;DHT22;4762;48.128;11.376;2023-04-25T01:29:57;5.80;99.90
9448;DHT22;4762;48.128;11.376;2023-04-25T01:31:59;5.70;99.90
9448;DHT22;4762;48.128;11.376;2023-04-25T01:34:02;5.60;99.90
9448;DHT22;4762;48.128;11.376;2023-04-25T01:36:05;5.50;99.90
9448;DHT22;4762;48.128;11.376;2023-04-25T01:38:08;5.40;99.90
9448;DHT22;4762;48.128;11.376;2023-04-25T01:40:10;5.30;99.90
9448;DHT22;4762;48.128;11.376;2023-04-25T01:42:12;5.30;99.90
9448;DHT22;4762;48.128;11.376;2023-04-25T01:44:14;5.20;99.90
9448;DHT22;4762;48.128;11.376;2023-04-25T01:46:16;5.20;99.90
9448;DHT22;4762;48.128;11.376;2023-04-25T01:48:19;5.20;99.90
9448;DHT22;4762;48.128;11.376;2023-04-25T01:50:21;5.20;99.90
9448;DHT22;4762;48.128;11.376;2023-04-25T01:52:23;5.20;99.90
9448;DHT22;4762;48.128;11.376;2023-04-25T01:54:25;5.10;99.90
9448;DHT22;4762;48.128;11.376;2023-04-25T01:56:32;5.10;99.90
9448;DHT22;4762;48.128;11.376;2023-04-25T01:58:33;5.00;99.90
9448;DHT22;4762;48.128;11.376;2023-04-25T02:00:36;4.90;99.90
9448;DHT22;4762;48.128;11.376;2023-04-25T02:02:38;4.80;99.90
9448;DHT22;4762;48.128;11.376;2023-04-25T02:04:41;4.70;99.90
9448;DHT22;4762;48.128;11.376;2023-04-25T02:06:43;4.70;99.90
9448;DHT22;4762;48.128;11.376;2023-04-25T02:08:45;4.70;99.90
9448;DHT22;4762;48.128;11.376;2023-04-25T02:10:47;4.80;99.90
9448;DHT22;4762;48.128;11.376;2023-04-25T02:12:49;4.90;99.90
9448;DHT22;4762;48.128;11.376;2023-04-25T02:14:52;5.00;99.90
9448;DHT22;4762;48.128;11.376;2023-04-25T02:16:54;5.10;99.90
9448;DHT22;4762;48.128;11.376;2023-04-25T02:18:56;5.20;99.90
9448;DHT22;4762;48.128;11.376;2023-04-25T02:20:59;5.30;99.90
9448;DHT22;4762;48.128;11.376;2023-04-25T02:23:01;5.30;99.90
9448;DHT22;4762;48.128;11.376;2023-04-25T02:25:03;5.30;99.90
9448;DHT22;4762;48.128;11.376;2023-04-25T02:27:05;5.30;99.90
9448;DHT22;4762;48.128;11.376;2023-04-25T02:29:07;5.30;99.90
9448;DHT22;4762;48.128;11.376;2023-04-25T02:31:10;5.40;99.90
9448;DHT22;4762;48.128;11.376;2023-04-25T02:33:12;5.40;99.90
9448;DHT22;4762;48.128;11.376;2023-04-25T02:35:14;5.40;99.90
9448;DHT22;4762;48.128;11.376;2023-04-25T02:39:36;5.50;99.90
9448;DHT22;4762;48.128;11.376;2023-04-25T02:41:38;5.50;99.90
9448;DHT22;4762;48.128;11.376;2023-04-25T02:43:40;5.50;99.90
9448;DHT22;4762;48.128;11.376;2023-04-25T02:45:43;5.60;99.90
9448;DHT22;4762;48.128;11.376;2023-04-25T02:47:45;5.60;99.90
9448;DHT22;4762;48.128;11.376;2023-04-25T02:49:47;5.70;99.90
9448;DHT22;4762;48.128;11.376;2023-04-25T02:51:49;5.70;99.90
9448;DHT22;4762;48.128;11.376;2023-04-25T02:53:51;5.80;99.90
9448;DHT22;4762;48.128;11.376;2023-04-25T02:55:54;5.90;99.90
9448;DHT22;4762;48.128;11.376;2023-04-25T02:57:56;5.90;99.90
9448;DHT22;4762;48.128;11.376;2023-04-25T02:59:58;6.00;99.90
9448;DHT22;4762;48.128;11.376;2023-04-25T03:02:00;6.10;99.90
9448;DHT22;4762;48.128;11.376;2023-04-25T03:04:03;6.20;99.90
9448;DHT22;4762;48.128;11.376;2023-04-25T03:06:05;6.20;99.90
9448;DHT22;4762;48.128;11.376;2023-04-25T03:08:07;6.20;99.90
9448;DHT22;4762;48.128;11.376;2023-04-25T03:10:10;6.20;99.90
9448;DHT22;4762;48.128;11.376;2023-04-25T03:12:12;6.20;99.90
9448;DHT22;4762;48.128;11.376;2023-04-25T03:14:14;6.20;99.90
9448;DHT22;4762;48.128;11.376;2023-04-25T03:16:16;6.10;99.90
9448;DHT22;4762;48.128;11.376;2023-04-25T03:18:18;6.00;99.90
9448;DHT22;4762;48.128;11.376;2023-04-25T03:20:20;6.00;99.90
9448;DHT22;4762;48.128;11.376;2023-04-25T03:22:23;6.00;99.90
9448;DHT22;4762;48.128;11.376;2023-04-25T03:24:25;5.90;99.90
9448;DHT22;4762;48.128;11.376;2023-04-25T03:26:28;5.90;99.90
9448;DHT22;4762;48.128;11.376;2023-04-25T03:28:30;5.80;99.90
9448;DHT22;4762;48.128;11.376;2023-04-25T03:30:32;5.80;99.90
9448;DHT22;4762;48.128;11.376;2023-04-25T03:32:35;5.70;99.90
9448;DHT22;4762;48.128;11.376;2023-04-25T03:34:37;5.70;99.90
9448;DHT22;4762;48.128;11.376;2023-04-25T03:36:39;5.70;99.90
9448;DHT22;4762;48.128;11.376;2023-04-25T03:38:41;5.70;99.90
9448;DHT22;4762;48.128;11.376;2023-04-25T03:40:43;5.60;99.90
9448;DHT22;4762;48.128;11.376;2023-04-25T03:42:46;5.60;99.90
9448;DHT22;4762;48.128;11.376;2023-04-25T03:44:48;5.50;99.90
9448;DHT22;4762;48.128;11.376;2023-04-25T03:46:50;5.50;99.90
9448;DHT22;4762;48.128;11.376;2023-04-25T03:48:52;5.50;99.90
9448;DHT22;4762;48.128;11.376;2023-04-25T03:50:55;5.50;99.90
9448;DHT22;4762;48.128;11.376;2023-04-25T03:52:57;5.50;99.90
9448;DHT22;4762;48.128;11.376;2023-04-25T03:54:59;5.50;99.90
9448;DHT22;4762;48.128;11.376;2023-04-25T03:57:01;5.50;99.90
9448;DHT22;4762;48.128;11.376;2023-04-25T03:59:03;5.50;99.90
9448;DHT22;4762;48.128;11.376;2023-04-25T04:01:06;5.40;99.90
9448;DHT22;4762;48.128;11.376;2023-04-25T04:03:08;5.40;99.90
9448;DHT22;4762;48.128;11.376;2023-04-25T04:05:10;5.30;99.90
9448;DHT22;4762;48.128;11.376;2023-04-25T04:07:13;5.30;99.90
9448;DHT22;4762;48.128;11.376;2023-04-25T04:09:16;5.30;99.90
9448;DHT22;4762;48.128;11.376;2023-04-25T04:11:18;5.20;99.90
9448;DHT22;4762;48.128;11.376;2023-04-25T04:13:20;5.20;99.90
9448;DHT22;4762;48.128;11.376;2023-04-25T04:15:22;5.30;99.90
9448;DHT22;4762;48.128;11.376;2023-04-25T04:17:24;5.30;99.90
9448;DHT22;4762;48.128;11.376;2023-04-25T04:19:27;5.40;99.90
9448;DHT22;4762;48.128;11.376;2023-04-25T04:21:29;5.40;99.90
9448;DHT22;4762;48.128;11.376;2023-04-25T04:23:31;5.40;99.90
9448;DHT22;4762;48.128;11.376;2023-04-25T04:25:33;5.40;99.90
9448;DHT22;4762;48.128;11.376;2023-04-25T04:27:35;5.50;99.90
9448;DHT22;4762;48.128;11.376;2023-04-25T04:29:38;5.50;99.90
9448;DHT22;4762;48.128;11.376;2023-04-25T04:31:40;5.50;99.90
9448;DHT22;4762;48.128;11.376;2023-04-25T04:33:42;5.60;99.90
9448;DHT22;4762;48.128;11.376;2023-04-25T04:35:45;5.60;99.90
9448;DHT22;4762;48.128;11.376;2023-04-25T04:37:46;5.60;99.90
9448;DHT22;4762;48.128;11.376;2023-04-25T04:39:49;5.60;99.90
9448;DHT22;4762;48.128;11.376;2023-04-25T04:41:51;5.70;99.90
9448;DHT22;4762;48.128;11.376;2023-04-25T04:43:53;5.70;99.90
9448;DHT22;4762;48.128;11.376;2023-04-25T04:45:55;5.70;99.90
9448;DHT22;4762;48.128;11.376;2023-04-25T04:47:58;5.70;99.90
9448;DHT22;4762;48.128;11.376;2023-04-25T04:50:01;5.70;99.90
9448;DHT22;4762;48.128;11.376;2023-04-25T04:52:03;5.80;99.90
9448;DHT22;4762;48.128;11.376;2023-04-25T04:54:05;5.70;99.90
9448;DHT22;4762;48.128;11.376;2023-04-25T04:56:07;5.70;99.90
9448;DHT22;4762;48.128;11.376;2023-04-25T04:58:09;5.70;99.90
9448;DHT22;4762;48.128;11.376;2023-04-25T05:00:12;5.70;99.90
9448;DHT22;4762;48.128;11.376;2023-04-25T05:02:14;5.70;99.90
9448;DHT22;4762;48.128;11.376;2023-04-25T05:04:17;5.70;99.90
9448;DHT22;4762;48.128;11.376;2023-04-25T05:06:20;5.70;99.90
9448;DHT22;4762;48.128;11.376;2023-04-25T05:08:22;5.70;99.90
9448;DHT22;4762;48.128;11.376;2023-04-25T05:10:25;5.80;99.90
9448;DHT22;4762;48.128;11.376;2023-04-25T05:12:27;5.80;99.90
9448;DHT22;4762;48.128;11.376;2023-04-25T05:14:30;5.80;99.90
9448;DHT22;4762;48.128;11.376;2023-04-25T05:16:32;5.80;99.90
9448;DHT22;4762;48.128;11.376;2023-04-25T05:18:34;5.90;99.90
9448;DHT22;4762;48.128;11.376;2023-04-25T05:20:36;5.90;99.90
9448;DHT22;4762;48.128;11.376;2023-04-25T05:22:39;5.90;99.90
9448;DHT22;4762;48.128;11.376;2023-04-25T05:24:41;5.90;99.90
9448;DHT22;4762;48.128;11.376;2023-04-25T05:26:43;6.00;99.90
9448;DHT22;4762;48.128;11.376;2023-04-25T05:28:45;6.00;99.90
9448;DHT22;4762;48.128;11.376;2023-04-25T05:30:47;6.00;99.90
9448;DHT22;4762;48.128;11.376;2023-04-25T05:32:50;6.00;99.90
9448;DHT22;4762;48.128;11.376;2023-04-25T05:34:54;6.10;99.90
9448;DHT22;4762;48.128;11.376;2023-04-25T05:36:56;6.00;99.90
9448;DHT22;4762;48.128;11.376;2023-04-25T05:38:58;6.00;99.90
9448;DHT22;4762;48.128;11.376;2023-04-25T05:41:00;6.00;99.90
9448;DHT22;4762;48.128;11.376;2023-04-25T05:43:03;6.00;99.90
9448;DHT22;4762;48.128;11.376;2023-04-25T05:45:09;5.90;99.90
9448;DHT22;4762;48.128;11.376;2023-04-25T06:00:11;5.00;99.90
9448;DHT22;4762;48.128;11.376;2023-04-25T06:02:12;4.90;99.90
9448;DHT22;4762;48.128;11.376;2023-04-25T06:06:36;4.90;99.90
9448;DHT22;4762;48.128;11.376;2023-04-25T06:11:01;4.90;99.90
9448;DHT22;4762;48.128;11.376;2023-04-25T06:13:13;4.90;99.90
9448;DHT22;4762;48.128;11.376;2023-04-25T06:15:15;5.10;99.90
9448;DHT22;4762;48.128;11.376;2023-04-25T06:17:32;5.20;99.90
9448;DHT22;4762;48.128;11.376;2023-04-25T06:24:26;5.40;99.90
9448;DHT22;4762;48.128;11.376;2023-04-25T06:26:29;5.50;99.90
9448;DHT22;4762;48.128;11.376;2023-04-25T06:28:33;5.70;99.90
9448;DHT22;4762;48.128;11.376;2023-04-25T06:33:14;6.90;99.90
9448;DHT22;4762;48.128;11.376;2023-04-25T06:35:26;7.30;99.90
9448;DHT22;4762;48.128;11.376;2023-04-25T06:45:22;7.10;99.90
9448;DHT22;4762;48.128;11.376;2023-04-25T07:16:19;7.50;99.90
9448;DHT22;4762;48.128;11.376;2023-04-25T07:28:53;8.80;99.90
9448;DHT22;4762;48.128;11.376;2023-04-25T07:31:08;9.20;99.90
9448;DHT22;4762;48.128;11.376;2023-04-25T07:38:10;10.20;99.90
9448;DHT22;4762;48.128;11.376;2023-04-25T07:40:12;10.30;99.90
9448;DHT22;4762;48.128;11.376;2023-04-25T07:42:14;10.50;99.90
9448;DHT22;4762;48.128;11.376;2023-04-25T07:44:16;10.70;99.90
9448;DHT22;4762;48.128;11.376;2023-04-25T07:51:38;11.40;99.90
9448;DHT22;4762;48.128;11.376;2023-04-25T07:53:41;11.40;99.90
9448;DHT22;4762;48.128;11.376;2023-04-25T07:55:43;11.80;99.90
9448;DHT22;4762;48.128;11.376;2023-04-25T07:57:45;11.90;99.90
9448;DHT22;4762;48.128;11.376;2023-04-25T07:59:48;12.60;99.90
9448;DHT22;4762;48.128;11.376;2023-04-25T08:01:50;11.90;99.90
9448;DHT22;4762;48.128;11.376;2023-04-25T08:03:52;12.30;99.90
9448;DHT22;4762;48.128;11.376;2023-04-25T08:05:54;12.40;99.90
9448;DHT22;4762;48.128;11.376;2023-04-25T08:07:56;12.10;99.90
9448;DHT22;4762;48.128;11.376;2023-04-25T08:09:59;11.40;99.90
9448;DHT22;4762;48.128;11.376;2023-04-25T08:12:01;11.10;99.90
9448;DHT22;4762;48.128;11.376;2023-04-25T08:14:03;11.20;99.90
9448;DHT22;4762;48.128;11.376;2023-04-25T08:16:05;11.20;99.90
9448;DHT22;4762;48.128;11.376;2023-04-25T08:18:08;11.10;99.90
9448;DHT22;4762;48.128;11.376;2023-04-25T08:20:11;10.60;99.90
9448;DHT22;4762;48.128;11.376;2023-04-25T08:22:13;10.40;99.90
9448;DHT22;4762;48.128;11.376;2023-04-25T08:24:16;10.20;99.90
9448;DHT22;4762;48.128;11.376;2023-04-25T08:26:18;11.40;99.90
9448;DHT22;4762;48.128;11.376;2023-04-25T08:28:20;12.00;99.90
9448;DHT22;4762;48.128;11.376;2023-04-25T08:30:22;12.10;96.70
9448;DHT22;4762;48.128;11.376;2023-04-25T08:32:25;12.50;95.40
9448;DHT22;4762;48.128;11.376;2023-04-25T08:34:27;12.90;92.20
9448;DHT22;4762;48.128;11.376;2023-04-25T08:36:30;13.20;95.70
9448;DHT22;4762;48.128;11.376;2023-04-25T08:38:33;13.70;82.50
9448;DHT22;4762;48.128;11.376;2023-04-25T08:40:36;13.90;90.10
9448;DHT22;4762;48.128;11.376;2023-04-25T08:42:37;13.80;77.00
9448;DHT22;4762;48.128;11.376;2023-04-25T08:44:39;13.60;94.60
9448;DHT22;4762;48.128;11.376;2023-04-25T08:46:42;13.80;81.30
9448;DHT22;4762;48.128;11.376;2023-04-25T08:48:44;13.90;77.80
9448;DHT22;4762;48.128;11.376;2023-04-25T08:50:50;13.00;73.20
9448;DHT22;4762;48.128;11.376;2023-04-25T08:52:53;13.50;86.40
9448;DHT22;4762;48.128;11.376;2023-04-25T08:54:55;13.80;66.20
9448;DHT22;4762;48.128;11.376;2023-04-25T08:59:12;13.70;84.90
9448;DHT22;4762;48.128;11.376;2023-04-25T09:01:14;13.70;66.80
9448;DHT22;4762;48.128;11.376;2023-04-25T09:03:16;14.30;81.00
9448;DHT22;4762;48.128;11.376;2023-04-25T09:05:18;14.60;62.90
9448;DHT22;4762;48.128;11.376;2023-04-25T09:07:21;15.20;67.10
9448;DHT22;4762;48.128;11.376;2023-04-25T09:09:23;15.00;59.40
9448;DHT22;4762;48.128;11.376;2023-04-25T09:11:25;14.90;61.10
9448;DHT22;4762;48.128;11.376;2023-04-25T09:13:28;14.50;63.00
9448;DHT22;4762;48.128;11.376;2023-04-25T09:15:31;16.00;80.30
9448;DHT22;4762;48.128;11.376;2023-04-25T09:17:33;15.70;58.80
9448;DHT22;4762;48.128;11.376;2023-04-25T09:19:35;15.20;60.30
9448;DHT22;4762;48.128;11.376;2023-04-25T09:21:37;15.50;59.80
9448;DHT22;4762;48.128;11.376;2023-04-25T09:23:41;15.40;59.20
9448;DHT22;4762;48.128;11.376;2023-04-25T09:25:42;15.30;58.30
9448;DHT22;4762;48.128;11.376;2023-04-25T09:27:51;15.40;60.00
9448;DHT22;4762;48.128;11.376;2023-04-25T09:29:58;15.10;60.00
9448;DHT22;4762;48.128;11.376;2023-04-25T09:32:15;15.40;60.90
9448;DHT22;4762;48.128;11.376;2023-04-25T09:34:15;15.00;56.90
9448;DHT22;4762;48.128;11.376;2023-04-25T09:36:18;14.70;59.40
9448;DHT22;4762;48.128;11.376;2023-04-25T09:38:20;13.90;60.10
9448;DHT22;4762;48.128;11.376;2023-04-25T09:40:23;14.00;62.80
9448;DHT22;4762;48.128;11.376;2023-04-25T09:42:26;13.90;61.30
9448;DHT22;4762;48.128;11.376;2023-04-25T09:44:28;13.40;64.30
9448;DHT22;4762;48.128;11.376;2023-04-25T09:46:34;12.90;60.00
9448;DHT22;4762;48.128;11.376;2023-04-25T09:48:36;13.00;62.90
9448;DHT22;4762;48.128;11.376;2023-04-25T09:50:38;13.00;60.00
9448;DHT22;4762;48.128;11.376;2023-04-25T09:52:40;12.80;61.70
9448;DHT22;4762;48.128;11.376;2023-04-25T09:54:43;14.30;63.30
9448;DHT22;4762;48.128;11.376;2023-04-25T09:56:45;15.80;55.70
9448;DHT22;4762;48.128;11.376;2023-04-25T09:58:47;16.10;54.20
9448;DHT22;4762;48.128;11.376;2023-04-25T10:00:49;15.40;53.40
9448;DHT22;4762;48.128;11.376;2023-04-25T10:02:51;16.30;57.90
9448;DHT22;4762;48.128;11.376;2023-04-25T10:04:54;17.10;55.80
9448;DHT22;4762;48.128;11.376;2023-04-25T10:06:56;17.10;49.10
9448;DHT22;4762;48.128;11.376;2023-04-25T10:08:58;15.80;52.30
9448;DHT22;4762;48.128;11.376;2023-04-25T10:11:01;15.20;52.50
9448;DHT22;4762;48.128;11.376;2023-04-25T10:13:03;14.40;53.80
9448;DHT22;4762;48.128;11.376;2023-04-25T10:15:06;13.60;55.10
9448;DHT22;4762;48.128;11.376;2023-04-25T10:17:10;12.90;64.30
9448;DHT22;4762;48.128;11.376;2023-04-25T10:19:11;11.80;85.40
9448;DHT22;4762;48.128;11.376;2023-04-25T10:21:13;10.70;98.80
9448;DHT22;4762;48.128;11.376;2023-04-25T10:23:16;9.60;99.90
9448;DHT22;4762;48.128;11.376;2023-04-25T10:25:18;9.50;99.90
9448;DHT22;4762;48.128;11.376;2023-04-25T10:27:21;9.20;99.90
9448;DHT22;4762;48.128;11.376;2023-04-25T10:29:24;9.60;99.90
9448;DHT22;4762;48.128;11.376;2023-04-25T10:31:27;9.60;99.90
9448;DHT22;4762;48.128;11.376;2023-04-25T10:33:34;9.70;99.90
9448;DHT22;4762;48.128;11.376;2023-04-25T10:35:36;9.80;99.90
9448;DHT22;4762;48.128;11.376;2023-04-25T10:42:37;10.50;99.90
9448;DHT22;4762;48.128;11.376;2023-04-25T10:44:40;10.30;99.90
9448;DHT22;4762;48.128;11.376;2023-04-25T10:46:48;10.20;99.90
9448;DHT22;4762;48.128;11.376;2023-04-25T10:53:30;10.00;99.90
9448;DHT22;4762;48.128;11.376;2023-04-25T10:55:48;10.50;99.90
9448;DHT22;4762;48.128;11.376;2023-04-25T11:00:13;11.10;99.90
9448;DHT22;4762;48.128;11.376;2023-04-25T11:02:15;11.50;99.90
9448;DHT22;4762;48.128;11.376;2023-04-25T11:04:21;11.90;99.90
9448;DHT22;4762;48.128;11.376;2023-04-25T11:06:26;12.40;99.80
9448;DHT22;4762;48.128;11.376;2023-04-25T11:08:32;11.60;90.20
9448;DHT22;4762;48.128;11.376;2023-04-25T11:10:30;11.50;98.20
9448;DHT22;4762;48.128;11.376;2023-04-25T11:12:32;10.90;95.80
9448;DHT22;4762;48.128;11.376;2023-04-25T11:14:35;10.70;99.90
9448;DHT22;4762;48.128;11.376;2023-04-25T11:16:36;10.40;95.90
9448;DHT22;4762;48.128;11.376;2023-04-25T11:18:41;9.90;99.90
9448;DHT22;4762;48.128;11.376;2023-04-25T11:20:43;9.60;99.90
9448;DHT22;4762;48.128;11.376;2023-04-25T11:22:46;9.40;99.90
9448;DHT22;4762;48.128;11.376;2023-04-25T11:24:47;9.40;99.90
9448;DHT22;4762;48.128;11.376;2023-04-25T11:26:49;9.10;99.90
9448;DHT22;4762;48.128;11.376;2023-04-25T11:28:51;9.10;99.90
9448;DHT22;4762;48.128;11.376;2023-04-25T11:30:54;9.00;99.90
9448;DHT22;4762;48.128;11.376;2023-04-25T11:32:57;9.00;99.90
9448;DHT22;4762;48.128;11.376;2023-04-25T11:35:00;8.90;99.90
9448;DHT22;4762;48.128;11.376;2023-04-25T11:37:02;8.60;99.90
9448;DHT22;4762;48.128;11.376;2023-04-25T11:39:05;8.50;99.90
9448;DHT22;4762;48.128;11.376;2023-04-25T11:41:08;8.60;99.90
9448;DHT22;4762;48.128;11.376;2023-04-25T11:43:10;8.70;99.90
9448;DHT22;4762;48.128;11.376;2023-04-25T11:45:13;8.80;99.90
9448;DHT22;4762;48.128;11.376;2023-04-25T11:47:15;8.90;99.90
9448;DHT22;4762;48.128;11.376;2023-04-25T11:49:17;8.60;99.90
9448;DHT22;4762;48.128;11.376;2023-04-25T11:51:19;8.50;99.90
9448;DHT22;4762;48.128;11.376;2023-04-25T11:53:21;8.40;99.90
9448;DHT22;4762;48.128;11.376;2023-04-25T11:55:24;8.60;99.90
9448;DHT22;4762;48.128;11.376;2023-04-25T11:57:26;8.80;99.90
9448;DHT22;4762;48.128;11.376;2023-04-25T11:59:28;8.50;99.90
9448;DHT22;4762;48.128;11.376;2023-04-25T12:01:31;8.50;99.90
9448;DHT22;4762;48.128;11.376;2023-04-25T12:03:32;8.30;99.90
9448;DHT22;4762;48.128;11.376;2023-04-25T12:05:35;8.20;99.90
9448;DHT22;4762;48.128;11.376;2023-04-25T12:07:37;8.30;99.90
9448;DHT22;4762;48.128;11.376;2023-04-25T12:09:39;8.30;99.90
9448;DHT22;4762;48.128;11.376;2023-04-25T12:11:42;8.40;99.90
9448;DHT22;4762;48.128;11.376;2023-04-25T12:13:44;8.30;99.90
9448;DHT22;4762;48.128;11.376;2023-04-25T12:15:46;8.30;99.90
9448;DHT22;4762;48.128;11.376;2023-04-25T12:17:49;8.10;99.90
9448;DHT22;4762;48.128;11.376;2023-04-25T12:19:51;8.30;99.90
9448;DHT22;4762;48.128;11.376;2023-04-25T12:21:53;8.20;99.90
9448;DHT22;4762;48.128;11.376;2023-04-25T12:23:55;8.10;99.90
9448;DHT22;4762;48.128;11.376;2023-04-25T12:25:57;8.10;99.90
9448;DHT22;4762;48.128;11.376;2023-04-25T12:28:11;8.00;99.90
9448;DHT22;4762;48.128;11.376;2023-04-25T12:30:13;7.90;99.90
9448;DHT22;4762;48.128;11.376;2023-04-25T12:32:16;7.70;99.90
9448;DHT22;4762;48.128;11.376;2023-04-25T12:34:18;7.90;99.90
9448;DHT22;4762;48.128;11.376;2023-04-25T12:36:20;7.90;99.90
9448;DHT22;4762;48.128;11.376;2023-04-25T12:38:25;7.80;99.90
9448;DHT22;4762;48.128;11.376;2023-04-25T12:40:27;8.00;99.90
9448;DHT22;4762;48.128;11.376;2023-04-25T12:42:30;8.20;99.90
9448;DHT22;4762;48.128;11.376;2023-04-25T12:44:32;8.40;99.90
9448;DHT22;4762;48.128;11.376;2023-04-25T12:46:34;8.30;99.90
9448;DHT22;4762;48.128;11.376;2023-04-25T12:48:36;8.20;99.90
9448;DHT22;4762;48.128;11.376;2023-04-25T12:50:38;8.30;99.90
9448;DHT22;4762;48.128;11.376;2023-04-25T12:52:41;8.70;99.90
9448;DHT22;4762;48.128;11.376;2023-04-25T12:54:43;8.70;99.90
9448;DHT22;4762;48.128;11.376;2023-04-25T12:56:45;8.70;99.90
9448;DHT22;4762;48.128;11.376;2023-04-25T12:58:49;8.80;99.90
9448;DHT22;4762;48.128;11.376;2023-04-25T13:00:52;8.70;99.90
9448;DHT22;4762;48.128;11.376;2023-04-25T13:02:54;9.10;99.90
9448;DHT22;4762;48.128;11.376;2023-04-25T13:04:56;8.90;99.90
9448;DHT22;4762;48.128;11.376;2023-04-25T13:06:59;9.00;99.90
9448;DHT22;4762;48.128;11.376;2023-04-25T13:09:01;8.80;99.90
9448;DHT22;4762;48.128;11.376;2023-04-25T13:11:04;8.90;99.90
9448;DHT22;4762;48.128;11.376;2023-04-25T13:13:06;8.60;99.90
9448;DHT22;4762;48.128;11.376;2023-04-25T13:15:09;8.60;99.90
9448;DHT22;4762;48.128;11.376;2023-04-25T13:17:11;8.80;99.90
9448;DHT22;4762;48.128;11.376;2023-04-25T13:19:13;8.60;99.90
9448;DHT22;4762;48.128;11.376;2023-04-25T13:21:16;8.50;99.90
9448;DHT22;4762;48.128;11.376;2023-04-25T13:25:56;7.90;99.90
9448;DHT22;4762;48.128;11.376;2023-04-25T13:30:35;7.80;99.90
9448;DHT22;4762;48.128;11.376;2023-04-25T13:32:38;7.90;99.90
9448;DHT22;4762;48.128;11.376;2023-04-25T13:34:40;8.00;99.90
9448;DHT22;4762;48.128;11.376;2023-04-25T13:39:11;8.10;99.90
9448;DHT22;4762;48.128;11.376;2023-04-25T13:46:29;8.30;99.90
9448;DHT22;4762;48.128;11.376;2023-04-25T13:56:03;8.20;99.90
9448;DHT22;4762;48.128;11.376;2023-04-25T14:00:44;8.90;99.90
9448;DHT22;4762;48.128;11.376;2023-04-25T14:03:09;8.50;99.90
9448;DHT22;4762;48.128;11.376;2023-04-25T14:30:50;9.20;99.90
9448;DHT22;4762;48.128;11.376;2023-04-25T14:32:56;9.00;99.90
9448;DHT22;4762;48.128;11.376;2023-04-25T14:35:02;9.00;99.90
9448;DHT22;4762;48.128;11.376;2023-04-25T14:37:12;8.90;99.90
9448;DHT22;4762;48.128;11.376;2023-04-25T14:41:29;8.80;99.90
9448;DHT22;4762;48.128;11.376;2023-04-25T14:43:31;8.60;99.90
9448;DHT22;4762;48.128;11.376;2023-04-25T14:45:33;8.70;99.90
9448;DHT22;4762;48.128;11.376;2023-04-25T14:47:36;8.80;99.90
9448;DHT22;4762;48.128;11.376;2023-04-25T14:49:39;8.70;99.90
9448;DHT22;4762;48.128;11.376;2023-04-25T14:51:41;8.90;99.90
9448;DHT22;4762;48.128;11.376;2023-04-25T14:53:43;8.50;99.90
9448;DHT22;4762;48.128;11.376;2023-04-25T14:55:45;8.40;99.90
9448;DHT22;4762;48.128;11.376;2023-04-25T14:57:49;8.60;99.90
9448;DHT22;4762;48.128;11.376;2023-04-25T14:59:51;8.70;99.90
9448;DHT22;4762;48.128;11.376;2023-04-25T15:01:54;9.00;99.90
9448;DHT22;4762;48.128;11.376;2023-04-25T15:03:56;9.50;99.90
9448;DHT22;4762;48.128;11.376;2023-04-25T15:05:58;9.00;99.90
9448;DHT22;4762;48.128;11.376;2023-04-25T15:08:01;9.00;99.90
9448;DHT22;4762;48.128;11.376;2023-04-25T15:10:06;8.70;99.90
9448;DHT22;4762;48.128;11.376;2023-04-25T15:12:08;8.40;99.90
9448;DHT22;4762;48.128;11.376;2023-04-25T15:14:10;8.50;99.90
9448;DHT22;4762;48.128;11.376;2023-04-25T15:16:13;8.60;99.90
9448;DHT22;4762;48.128;11.376;2023-04-25T15:18:15;8.60;99.90
9448;DHT22;4762;48.128;11.376;2023-04-25T15:20:17;8.70;99.90
9448;DHT22;4762;48.128;11.376;2023-04-25T15:22:20;8.70;99.90
9448;DHT22;4762;48.128;11.376;2023-04-25T15:24:23;8.40;99.90
9448;DHT22;4762;48.128;11.376;2023-04-25T15:26:26;8.40;99.90
9448;DHT22;4762;48.128;11.376;2023-04-25T15:28:27;8.30;99.90
9448;DHT22;4762;48.128;11.376;2023-04-25T15:30:30;8.40;99.90
9448;DHT22;4762;48.128;11.376;2023-04-25T15:32:32;8.40;99.90
9448;DHT22;4762;48.128;11.376;2023-04-25T15:34:34;8.60;99.90
9448;DHT22;4762;48.128;11.376;2023-04-25T15:36:36;8.50;99.90
9448;DHT22;4762;48.128;11.376;2023-04-25T15:38:39;8.30;99.90
9448;DHT22;4762;48.128;11.376;2023-04-25T15:40:41;8.30;99.90
9448;DHT22;4762;48.128;11.376;2023-04-25T15:42:44;8.20;99.90
9448;DHT22;4762;48.128;11.376;2023-04-25T15:44:45;8.20;99.90
9448;DHT22;4762;48.128;11.376;2023-04-25T15:46:48;8.10;99.90